Αναφορές Αεροδρομίων

 

KSJC - San Jose, California, USA
Distance from station: ΒΑ 14km
Ενημερώθηκε: 21/05/2024 19:53
Αίθριος
Αίθριος
 Ανεμος από calm
Ανεμος: Απνοια
Θερμοκρασία: 19°C
Σημείο Δρόσου: 9°C
Υγρασία: 52%
Βαρόμετρο: 1015.2 hPa
Clouds: Αίθριος
Visibility: 16 km
2024/05/21 16:53 KSJC 211653Z 00000KT 10SM CLR 19/09 A2998 RMK AO2 SLP151 T01890089
KNUQ - Moffett Nas/Mtn, California, USA
Distance from station: Β 14km
Ενημερώθηκε: 21/05/2024 20:15
Haze, Αίθριος
Haze, Αίθριος
 Ανεμος από Β
Ανεμος: Β 7 km/h
Θερμοκρασία: 18°C
Σημείο Δρόσου: 10°C
Υγρασία: 60%
Βαρόμετρο: 1015.2 hPa
Περίληψη: Haze
Clouds: Αίθριος
Visibility: 10 km
2024/05/21 17:15 KNUQ 211715Z AUTO 35004KT 6SM HZ CLR 18/10 A2998 RMK AO2
 
KPAO - Palo Alto, California, USA
Distance from station: ΒΒΔ 23km
Ενημερώθηκε: 21/05/2024 19:47
Αίθριος
Αίθριος
 Ανεμος από varies
Ανεμος: varies 9 km/h
Θερμοκρασία: 16°C
Σημείο Δρόσου: 10°C
Υγρασία: 68%
Βαρόμετρο: 1015.6 hPa
Clouds: Αίθριος
Visibility: 13 km
2024/05/21 16:47 KPAO 211647Z VRB05KT 8SM SKC 16/10 A2999
KRHV - San Jose/Reid, California, USA
Distance from station: ΑΒΑ 19km
Ενημερώθηκε: 21/05/2024 19:47
Αίθριος
Αίθριος
 Ανεμος από Δ
Ανεμος: Δ 6 km/h
Θερμοκρασία: 18°C
Σημείο Δρόσου: 9°C
Υγρασία: 56%
Βαρόμετρο: 1015.6 hPa
Clouds: Αίθριος
Visibility: 16 km
2024/05/21 16:47 KRHV 211647Z 26003KT 10SM SKC 18/09 A2999
 
KOAK - Oakland, California, USA
Distance from station: ΒΒΔ 50km
Ενημερώθηκε: 21/05/2024 19:53
Αίθριος
Αίθριος
 Ανεμος από ΝΔ
Ανεμος: ΝΔ 6 km/h
Θερμοκρασία: 16°C
Σημείο Δρόσου: 12°C
Υγρασία: 77%
Βαρόμετρο: 1015.6 hPa
Clouds: Αίθριος
Visibility: 16 km
2024/05/21 16:53 KOAK 211653Z 23003KT 10SM CLR 16/12 A2999 RMK AO2 SLP156 T01560117
KSQL - San Carlos Airpo, California, USA
Distance from station: ΒΔ 34km
Ενημερώθηκε: 21/05/2024 19:50
Αίθριος
Αίθριος
 Ανεμος από calm
Ανεμος: Απνοια
Θερμοκρασία: 17°C
Σημείο Δρόσου: 12°C
Υγρασία: 73%
Βαρόμετρο: 1015.9 hPa
Clouds: Αίθριος
Visibility: 16 km
2024/05/21 16:50 KSQL 211650Z 00000KT 10SM CLR 17/12 A3000
 
KSFO - San Francisco, California, USA
Distance from station: ΒΔ 49km
Ενημερώθηκε: 21/05/2024 19:56
Αίθριος
Αίθριος
 Ανεμος από ΑΒΑ
Ανεμος: ΑΒΑ 7 km/h
Θερμοκρασία: 17°C
Σημείο Δρόσου: 12°C
Υγρασία: 73%
Βαρόμετρο: 1015.2 hPa
Clouds: Αίθριος
Visibility: 16 km
2024/05/21 16:56 KSFO 211656Z 07004KT 10SM CLR 17/12 A2998 RMK AO2 SLP153 T01670117 $
KE16 - San Martin, California, USA
Distance from station: ΑΝΑ 43km
Ενημερώθηκε: 21/05/2024 19:55
Haze, Few clouds
Haze, Few clouds
 Ανεμος από ΝΝΑ
Ανεμος: ΝΝΑ 11 km/h
Θερμοκρασία: 12°C
Σημείο Δρόσου: 9°C
Υγρασία: 82%
Βαρόμετρο: 1016.6 hPa
Περίληψη: Haze
Clouds: Few Clouds
Visibility: 10 km
Cloud details: Few Clouds 366 m
2024/05/21 16:55 KE16 211655Z AUTO 16006KT 6SM HZ FEW012 12/09 A3002 RMK AO2
 
KWVI - Watsonville, California, USA
Distance from station: ΝΝΑ 44km
Ενημερώθηκε: 21/05/2024 19:53
Συννεφιά
Συννεφιά
 Ανεμος από calm
Ανεμος: Απνοια
Θερμοκρασία: 12°C
Σημείο Δρόσου: 9°C
Υγρασία: 82%
Βαρόμετρο: 1016.6 hPa
Clouds: Συννεφιά
Visibility: 16 km
Cloud details: Συννεφιά 305 m
2024/05/21 16:53 KWVI 211653Z AUTO 00000KT 10SM OVC010 12/09 A3002 RMK AO2 SLP163 T01220094
KHAF - Half Moon Bay, California, USA
Distance from station: ΔΒΔ 50km
Ενημερώθηκε: 21/05/2024 20:15
Mist, Μερικώς νεφελώδης
Mist, Μερικώς νεφελώδης
 Ανεμος από Ν
Ανεμος: Ν 7 km/h
Θερμοκρασία: 12°C
Σημείο Δρόσου: 11°C
Υγρασία: 94%
Βαρόμετρο: 1016.3 hPa
Περίληψη: Mist
Clouds: Μερικώς νεφελώδης
Visibility: 5 km
Cloud details: Μερικώς νεφελώδης 152 m
2024/05/21 17:15 KHAF 211715Z AUTO 19004KT 3SM BR SCT005 12/11 A3001 RMK AO2
 
KHWD - Hayward, California, USA
Distance from station: Β 44km
Ενημερώθηκε: 21/05/2024 19:54
Αίθριος
Αίθριος
 Ανεμος από ΔΝΔ
Ανεμος: ΔΝΔ 7 km/h
Θερμοκρασία: 19°C
Σημείο Δρόσου: 11°C
Υγρασία: 60%
Βαρόμετρο: 1015.2 hPa
Clouds: Αίθριος
Visibility: 16 km
2024/05/21 16:54 KHWD 211654Z 24004KT 10SM CLR 19/11 A2998 RMK AO2 SLP161 T01890106
KLVK - Livermore, California, USA
Distance from station: ΒΒΑ 51km
Ενημερώθηκε: 21/05/2024 19:53
Αίθριος
Αίθριος
 Ανεμος από varies
Ανεμος: varies 7 km/h
Θερμοκρασία: 19°C
Σημείο Δρόσου: 9°C
Υγρασία: 52%
Βαρόμετρο: 1014.9 hPa
Clouds: Αίθριος
Visibility: 14 km
2024/05/21 16:53 KLVK 211653Z VRB04KT 9SM CLR 19/09 A2997 RMK AO2 SLP144 T01940094